METAR Data
IDs: Format: Raw Decoded Include TAF

Data at: 2311 UTC 01 Feb 2023

METAR for:K5SM (Sunlight Peak, CO, US)
Text:K5SM 012255Z AUTO 34004KT M1/4SM HZ VV000 M09/M12 A3020 RMK AO2
Temperature: -9.0°C ( 16°F)
Dewpoint:-12.0°C ( 10°F) [RH = 79%]
Pressure (altimeter):30.20 inches Hg (1022.8 mb)
Winds:from the NNW (340 degrees) at 5 MPH (4 knots; 2.1 m/s)
Visibility: 0.25 sm ( 0.40 km)
Ceiling:indefinite ceiling with vertical visibility of 0 feet AGL
Clouds:obscured sky
Weather:HZ (haze)
QC Flag:automated observation with no human augmentation